Time;durP1;ratioP1;P1;durP2;ratioP2;P2;SDS_P1;SDS_P2;PMS_P1;PMS_P2;Temp;Humidity;BMP_temperature;BMP_pressure;BME280_temperature;BME280_humidity;BME280_pressure;Samples;Min_cycle;Max_cycle;Signal;HPM_P1;HPM_P2
2023/11/08 00:02:43;;;;;;;;;;;;;;;;;;;;;
2023/11/08 00:08:17;;;;;;;3.75;0.95;;;;;;;;;;4946003;28;20038;-59
2023/11/08 00:11:25;;;;;;;1.70;0.90;;;;;;;;;;4983835;28;20031;-59
2023/11/08 00:14:05;;;;;;;5.18;1.48;;;;;;;;;;4982841;28;20031;-59
2023/11/08 00:16:58;;;;;;;2.28;1.08;;;;;;;;;;4982470;28;20053;-59
2023/11/08 00:19:56;;;;;;;;;;;;;;;;;;;;;
2023/11/08 00:22:35;;;;;;;1.98;1.02;;;;;;;;;;4982299;28;20118;-59
2023/11/08 00:25:15;;;;;;;3.03;1.90;;;;;;;;;;4982667;28;20030;-59
2023/11/08 00:27:47;;;;;;;2.00;1.23;;;;;;;;;;4981219;28;20023;-59
2023/11/08 00:30:19;;;;;;;3.42;1.40;;;;;;;;;;4982089;28;20031;-59
2023/11/08 00:35:48;;;;;;;2.38;1.05;;;;;;;;;;4982420;28;20086;-58
2023/11/08 00:38:53;;;;;;;3.00;1.40;;;;;;;;;;4981782;28;20027;-59
2023/11/08 00:41:44;;;;;;;7.10;2.03;;;;;;;;;;4980819;28;20039;-59
2023/11/08 00:44:33;;;;;;;3.03;1.50;;;;;;;;;;4982246;28;20054;-59
2023/11/08 00:47:38;;;;;;;3.08;1.10;;;;;;;;;;4981675;28;20038;-59
2023/11/08 00:50:16;;;;;;;2.58;1.35;;;;;;;;;;4981437;28;20045;-59
2023/11/08 00:53:10;;;;;;;4.40;1.23;;;;;;;;;;4979404;28;20070;-59
2023/11/08 00:55:49;;;;;;;2.55;1.52;;;;;;;;;;4978652;28;20054;-59
2023/11/08 00:58:45;;;;;;;1.52;0.77;;;;;;;;;;4963637;28;20062;-59
2023/11/08 01:01:25;;;;;;;2.20;1.08;;;;;;;;;;4981948;28;20043;-59
2023/11/08 01:04:19;;;;;;;2.95;0.75;;;;;;;;;;4979785;28;20039;-59
2023/11/08 01:06:46;;;;;;;1.80;0.90;;;;;;;;;;4981034;28;20066;-59
2023/11/08 01:12:38;;;;;;;2.70;1.13;;;;;;;;;;4981378;28;20039;-59
2023/11/08 01:18:24;;;;;;;1.02;0.55;;;;;;;;;;4970246;28;20137;-59
2023/11/08 01:21:20;;;;;;;1.65;0.65;;;;;;;;;;4975150;28;20382;-59
2023/11/08 01:23:49;;;;;;;4.07;1.10;;;;;;;;;;4940084;29;20050;-59
2023/11/08 01:26:34;;;;;;;1.95;0.80;;;;;;;;;;4940360;29;20036;-59
2023/11/08 01:29:20;;;;;;;;;;;;;;;;;;;;;
2023/11/08 01:32:01;;;;;;;4.88;1.05;;;;;;;;;;4980907;28;20109;-59
2023/11/08 01:34:35;;;;;;;3.90;1.85;;;;;;;;;;4981933;28;20045;-59
2023/11/08 01:40:51;;;;;;;2.47;1.10;;;;;;;;;;4976634;28;20045;-59
2023/11/08 01:43:30;;;;;;;7.82;2.45;;;;;;;;;;4978794;28;20022;-59
2023/11/08 01:46:22;;;;;;;5.43;1.05;;;;;;;;;;4980053;28;20023;-59
2023/11/08 01:52:16;;;;;;;2.33;1.20;;;;;;;;;;4980559;28;20535;-59
2023/11/08 01:54:56;;;;;;;1.98;0.75;;;;;;;;;;4946156;28;20058;-59
2023/11/08 01:57:35;;;;;;;4.72;1.13;;;;;;;;;;4980356;28;20030;-59
2023/11/08 02:00:28;;;;;;;1.58;0.80;;;;;;;;;;4980849;28;20051;-58
2023/11/08 02:03:07;;;;;;;1.40;0.70;;;;;;;;;;4939323;29;20122;-59
2023/11/08 02:08:40;;;;;;;1.10;0.40;;;;;;;;;;4976055;28;20444;-59
2023/11/08 02:11:11;;;;;;;2.55;1.02;;;;;;;;;;4980645;28;20026;-59
2023/11/08 02:16:40;;;;;;;4.53;0.75;;;;;;;;;;4980082;28;20038;-59
2023/11/08 02:19:47;;;;;;;4.05;0.63;;;;;;;;;;4978808;28;20503;-59
2023/11/08 02:22:41;;;;;;;1.58;0.43;;;;;;;;;;4980854;28;20436;-59
2023/11/08 02:28:30;;;;;;;3.97;0.57;;;;;;;;;;4962180;28;20029;-59
2023/11/08 02:31:32;;;;;;;;;;;;;;;;;;;;;
2023/11/08 02:34:19;;;;;;;;;;;;;;;;;;;;;
2023/11/08 02:36:46;;;;;;;2.97;0.75;;;;;;;;;;4978807;28;20399;-59
2023/11/08 02:39:25;;;;;;;1.95;0.70;;;;;;;;;;4979426;28;20034;-59
2023/11/08 02:42:20;;;;;;;1.42;0.75;;;;;;;;;;4978170;28;20030;-58
2023/11/08 02:45:13;;;;;;;1.40;0.60;;;;;;;;;;4979644;28;20066;-59
2023/11/08 02:53:40;;;;;;;1.40;0.73;;;;;;;;;;4954852;28;20050;-59
2023/11/08 02:59:28;;;;;;;2.38;0.80;;;;;;;;;;4960580;29;20131;-59
2023/11/08 03:02:24;;;;;;;1.17;0.70;;;;;;;;;;4960640;28;20039;-59
2023/11/08 03:05:03;;;;;;;1.40;0.63;;;;;;;;;;4960507;28;20058;-59
2023/11/08 03:07:45;;;;;;;1.77;0.88;;;;;;;;;;4959835;28;20062;-59
2023/11/08 03:13:12;;;;;;;;;;;;;;;;;;;;;
2023/11/08 03:18:38;;;;;;;1.77;0.68;;;;;;;;;;4960680;29;20357;-59
2023/11/08 03:21:25;;;;;;;1.42;0.80;;;;;;;;;;4961582;28;20038;-59
2023/11/08 03:27:10;;;;;;;4.18;1.73;;;;;;;;;;4960027;28;20039;-59
2023/11/08 03:30:06;;;;;;;3.28;0.65;;;;;;;;;;4961024;28;20034;-59
2023/11/08 03:33:00;;;;;;;;;;;;;;;;;;;;;
2023/11/08 03:35:56;;;;;;;4.30;0.80;;;;;;;;;;4965077;29;20074;-59
2023/11/08 03:38:46;;;;;;;1.63;0.80;;;;;;;;;;4964349;28;20051;-59
2023/11/08 03:41:40;;;;;;;3.78;1.17;;;;;;;;;;4964806;28;20419;-59
2023/11/08 03:47:42;;;;;;;1.60;0.77;;;;;;;;;;4963509;28;20062;-59
2023/11/08 03:50:38;;;;;;;3.42;1.02;;;;;;;;;;4929702;29;20043;-59
2023/11/08 03:53:14;;;;;;;2.53;1.23;;;;;;;;;;4961281;28;20091;-58
2023/11/08 03:56:22;;;;;;;;;;;;;;;;;;;;;
2023/11/08 03:59:02;;;;;;;3.63;1.13;;;;;;;;;;4960239;28;20091;-59
2023/11/08 04:02:11;;;;;;;2.33;0.50;;;;;;;;;;4964255;28;20516;-59
2023/11/08 04:04:58;;;;;;;3.50;1.23;;;;;;;;;;4964215;28;20031;-59
2023/11/08 04:07:34;;;;;;;2.55;0.95;;;;;;;;;;4957472;28;20142;-59
2023/11/08 04:10:16;;;;;;;3.50;0.88;;;;;;;;;;4963912;28;20113;-59
2023/11/08 04:12:52;;;;;;;3.10;1.00;;;;;;;;;;4962545;28;20129;-58
2023/11/08 04:15:48;;;;;;;3.35;1.30;;;;;;;;;;4963474;28;20082;-59
2023/11/08 04:24:52;;;;;;;1.75;1.05;;;;;;;;;;4955370;28;20378;-59
2023/11/08 04:27:30;;;;;;;5.70;1.65;;;;;;;;;;4962753;29;20030;-59
2023/11/08 04:30:18;;;;;;;4.50;1.10;;;;;;;;;;4963680;28;20507;-59
2023/11/08 04:32:54;;;;;;;2.45;1.17;;;;;;;;;;4963696;29;20042;-59
2023/11/08 04:35:31;;;;;;;2.03;0.75;;;;;;;;;;4961486;29;20458;-59
2023/11/08 04:41:02;;;;;;;2.70;0.88;;;;;;;;;;4963550;29;20056;-59
2023/11/08 04:43:48;;;;;;;2.70;0.88;;;;;;;;;;4963544;28;20031;-59
2023/11/08 04:46:29;;;;;;;2.72;1.05;;;;;;;;;;4961477;29;20027;-59
2023/11/08 04:49:27;;;;;;;4.68;1.17;;;;;;;;;;4962708;28;20031;-59
2023/11/08 04:55:14;;;;;;;1.63;0.88;;;;;;;;;;4946855;28;20035;-59
2023/11/08 04:57:50;;;;;;;2.70;0.95;;;;;;;;;;4961484;28;20516;-59
2023/11/08 05:00:40;;;;;;;5.07;1.10;;;;;;;;;;4956299;28;20039;-59
2023/11/08 05:03:22;;;;;;;3.63;1.08;;;;;;;;;;4955854;28;20910;-59
2023/11/08 05:05:57;;;;;;;5.38;0.95;;;;;;;;;;4972233;28;20097;-59
2023/11/08 05:08:43;;;;;;;1.83;0.82;;;;;;;;;;4976546;28;20109;-59
2023/11/08 05:11:28;;;;;;;1.95;0.80;;;;;;;;;;4977238;28;20652;-59
2023/11/08 05:13:58;;;;;;;3.55;1.70;;;;;;;;;;4975047;28;20432;-59
2023/11/08 05:16:30;;;;;;;2.72;1.48;;;;;;;;;;4974851;28;20485;-60
2023/11/08 05:19:05;;;;;;;2.53;1.27;;;;;;;;;;4977347;28;20504;-60
2023/11/08 05:22:06;;;;;;;3.45;1.23;;;;;;;;;;4956589;28;20038;-59
2023/11/08 05:24:44;;;;;;;6.53;1.38;;;;;;;;;;4960918;28;20043;-59
2023/11/08 05:27:25;;;;;;;2.63;1.17;;;;;;;;;;4977138;28;20023;-59
2023/11/08 05:29:54;;;;;;;3.05;1.52;;;;;;;;;;4957263;28;20039;-59
2023/11/08 05:32:50;;;;;;;4.13;0.88;;;;;;;;;;4979582;28;20391;-59
2023/11/08 05:35:53;;;;;;;2.33;1.30;;;;;;;;;;4978476;28;20483;-59
2023/11/08 05:38:40;;;;;;;5.13;1.38;;;;;;;;;;4977764;28;20031;-59
2023/11/08 05:41:09;;;;;;;1.60;1.20;;;;;;;;;;4984446;28;20062;-59
2023/11/08 05:46:59;;;;;;;2.25;1.00;;;;;;;;;;4958532;28;20031;-59
2023/11/08 05:53:13;;;;;;;3.33;1.20;;;;;;;;;;4921726;29;20040;-60
2023/11/08 05:55:50;;;;;;;2.75;1.15;;;;;;;;;;4931078;29;20130;-58
2023/11/08 05:58:49;;;;;;;2.08;0.90;;;;;;;;;;4957112;28;20035;-59
2023/11/08 06:01:42;;;;;;;1.85;1.00;;;;;;;;;;4968555;28;20090;-59
2023/11/08 06:04:30;;;;;;;2.45;1.42;;;;;;;;;;4965673;28;20122;-59
2023/11/08 06:07:08;;;;;;;;;;;;;;;;;;;;;
2023/11/08 06:09:38;;;;;;;5.38;1.80;;;;;;;;;;4963975;28;20057;-59
2023/11/08 06:12:05;;;;;;;3.95;1.30;;;;;;;;;;4973017;28;20113;-60
2023/11/08 06:14:32;;;;;;;4.47;1.20;;;;;;;;;;4964274;28;20397;-59
2023/11/08 06:17:09;;;;;;;4.30;1.17;;;;;;;;;;4971573;28;20057;-59
2023/11/08 06:20:08;;;;;;;3.45;1.30;;;;;;;;;;4972571;28;20035;-59
2023/11/08 06:25:31;;;;;;;1.83;1.00;;;;;;;;;;4969956;28;20035;-59
2023/11/08 06:28:09;;;;;;;3.75;1.02;;;;;;;;;;4973467;28;20022;-59
2023/11/08 06:30:59;;;;;;;2.15;1.17;;;;;;;;;;4973579;28;20023;-59
2023/11/08 06:33:36;;;;;;;2.42;1.38;;;;;;;;;;4972500;28;20685;-59
2023/11/08 06:36:31;;;;;;;3.75;1.50;;;;;;;;;;4973785;28;20041;-59
2023/11/08 06:39:19;;;;;;;3.15;1.48;;;;;;;;;;4961298;28;20117;-59
2023/11/08 06:44:53;;;;;;;2.47;1.63;;;;;;;;;;4966085;28;20030;-59
2023/11/08 06:47:44;;;;;;;3.47;1.75;;;;;;;;;;4973434;28;20113;-59
2023/11/08 06:50:29;;;;;;;2.60;1.33;;;;;;;;;;4972260;28;20500;-58
2023/11/08 06:53:13;;;;;;;3.92;1.52;;;;;;;;;;4971183;28;20416;-58
2023/11/08 06:55:52;;;;;;;;;;;;;;;;;;;;;
2023/11/08 06:58:40;;;;;;;3.08;1.58;;;;;;;;;;4973386;28;20113;-56
2023/11/08 07:01:15;;;;;;;2.67;1.45;;;;;;;;;;4974708;28;20045;-59
2023/11/08 07:04:03;;;;;;;;;;;;;;;;;;;;;
2023/11/08 07:16:14;;;;;;;6.10;1.38;;;;;;;;;;4974027;28;20171;-58
2023/11/08 07:19:03;;;;;;;4.30;1.77;;;;;;;;;;4973304;28;20035;-59
2023/11/08 07:21:40;;;;;;;2.63;1.27;;;;;;;;;;4973994;28;20030;-58
2023/11/08 07:24:11;;;;;;;5.20;1.70;;;;;;;;;;4973284;28;20023;-58
2023/11/08 07:26:46;;;;;;;2.95;1.45;;;;;;;;;;4971664;28;20050;-58
2023/11/08 07:32:39;;;;;;;2.95;1.63;;;;;;;;;;4973177;28;20118;-58
2023/11/08 07:38:24;;;;;;;2.08;1.25;;;;;;;;;;4972903;28;20035;-56
2023/11/08 07:41:23;;;;;;;2.08;1.25;;;;;;;;;;4967771;28;20138;-56
2023/11/08 07:44:10;;;;;;;5.68;1.77;;;;;;;;;;4973094;28;20145;-57
2023/11/08 07:46:57;;;;;;;4.40;1.58;;;;;;;;;;4973083;28;20019;-57
2023/11/08 07:49:40;;;;;;;2.25;1.23;;;;;;;;;;4972506;28;20489;-57
2023/11/08 07:55:36;;;;;;;2.08;1.15;;;;;;;;;;4971935;28;20126;-58
2023/11/08 07:58:11;;;;;;;2.75;1.20;;;;;;;;;;4969543;28;20036;-57
2023/11/08 08:01:03;;;;;;;3.85;1.25;;;;;;;;;;4973453;28;20548;-57
2023/11/08 08:07:06;;;;;;;2.67;1.38;;;;;;;;;;4977168;28;20030;-57
2023/11/08 08:09:35;;;;;;;2.67;1.30;;;;;;;;;;4961925;28;20050;-58
2023/11/08 08:12:08;;;;;;;3.10;1.27;;;;;;;;;;4977243;28;20033;-56
2023/11/08 08:14:56;;;;;;;3.33;1.25;;;;;;;;;;4977337;28;20042;-57
2023/11/08 08:17:34;;;;;;;;;;;;;;;;;;;;;
2023/11/08 08:20:09;;;;;;;2.55;0.90;;;;;;;;;;4978280;28;20125;-57
2023/11/08 08:22:48;;;;;;;2.00;0.82;;;;;;;;;;4976434;28;20105;-57
2023/11/08 08:31:21;;;;;;;3.15;0.80;;;;;;;;;;4981748;28;20042;-57
2023/11/08 08:33:57;;;;;;;1.50;0.60;;;;;;;;;;4977142;28;20508;-58
2023/11/08 08:36:46;;;;;;;1.35;0.75;;;;;;;;;;4977845;28;20051;-58
2023/11/08 08:39:24;;;;;;;3.08;1.02;;;;;;;;;;4978579;28;20049;-58
2023/11/08 08:42:15;;;;;;;2.30;0.88;;;;;;;;;;4977882;28;20066;-57
2023/11/08 08:44:41;;;;;;;;;;;;;;;;;;4977610;28;20514;-57
2023/11/08 08:47:22;;;;;;;0.75;0.38;;;;;;;;;;4977356;28;19960;-58
2023/11/08 08:55:44;;;;;;;1.60;0.68;;;;;;;;;;4969145;28;20038;-58
2023/11/08 09:04:14;;;;;;;2.00;0.73;;;;;;;;;;4967220;28;20123;-58
2023/11/08 09:06:49;;;;;;;1.73;0.70;;;;;;;;;;4970452;28;20051;-57
2023/11/08 09:09:44;;;;;;;1.83;0.70;;;;;;;;;;4978346;28;20053;-57
2023/11/08 09:12:16;;;;;;;3.05;0.73;;;;;;;;;;4977037;28;20034;-58
2023/11/08 09:15:15;;;;;;;2.10;0.50;;;;;;;;;;4973597;28;20488;-58
2023/11/08 09:21:06;;;;;;;0.70;0.40;;;;;;;;;;4975346;28;20240;-57
2023/11/08 09:23:53;;;;;;;0.75;0.40;;;;;;;;;;4975450;28;20393;-58
2023/11/08 09:26:28;;;;;;;2.05;1.08;;;;;;;;;;4974783;28;20049;-57
2023/11/08 09:29:19;;;;;;;1.70;0.80;;;;;;;;;;4974891;28;20040;-57
2023/11/08 09:32:11;;;;;;;1.23;0.50;;;;;;;;;;4973359;28;20515;-57
2023/11/08 09:34:57;;;;;;;2.13;0.75;;;;;;;;;;4966707;28;20508;-57
2023/11/08 09:37:27;;;;;;;1.65;0.60;;;;;;;;;;4974257;28;20027;-57
2023/11/08 09:40:22;;;;;;;;;;;;;;;;;;;;;
2023/11/08 09:42:56;;;;;;;2.83;0.50;;;;;;;;;;4974767;28;20065;-57
2023/11/08 09:45:30;;;;;;;1.08;0.32;;;;;;;;;;4972988;28;20121;-56
2023/11/08 09:48:24;;;;;;;0.93;0.50;;;;;;;;;;4951439;28;20131;-57
2023/11/08 09:50:51;;;;;;;0.68;0.40;;;;;;;;;;4974781;28;20133;-57
2023/11/08 09:53:18;;;;;;;4.22;0.45;;;;;;;;;;4973193;28;20477;-58
2023/11/08 10:01:48;;;;;;;;;;;;;;;;;;;;;
2023/11/08 10:04:16;;;;;;;0.75;0.40;;;;;;;;;;4973506;28;20031;-57
2023/11/08 10:06:50;;;;;;;0.63;0.30;;;;;;;;;;4972411;28;20031;-58
2023/11/08 10:09:36;;;;;;;0.43;0.20;;;;;;;;;;4974039;28;20034;-58
2023/11/08 10:12:11;;;;;;;1.60;0.47;;;;;;;;;;4952607;29;20462;-58
2023/11/08 10:15:13;;;;;;;;;;;;;;;;;;;;;
2023/11/08 10:17:46;;;;;;;0.80;0.50;;;;;;;;;;4971783;28;20042;-57
2023/11/08 10:20:44;;;;;;;1.73;0.60;;;;;;;;;;4956737;28;20050;-58
2023/11/08 10:23:32;;;;;;;0.80;0.40;;;;;;;;;;4972702;28;20031;-57
2023/11/08 10:26:23;;;;;;;0.88;0.30;;;;;;;;;;4956892;28;20046;-58
2023/11/08 10:29:21;;;;;;;1.52;0.40;;;;;;;;;;4973533;28;20373;-58
2023/11/08 10:31:54;;;;;;;0.65;0.30;;;;;;;;;;4906849;28;20381;-58
2023/11/08 10:34:31;;;;;;;1.17;0.30;;;;;;;;;;4974080;28;20027;-58
2023/11/08 10:37:21;;;;;;;0.88;0.50;;;;;;;;;;4972713;28;20038;-58
2023/11/08 10:43:34;;;;;;;1.30;0.47;;;;;;;;;;4972747;28;20617;-58
2023/11/08 10:46:18;;;;;;;0.77;0.40;;;;;;;;;;4969797;28;20034;-58
2023/11/08 10:51:46;;;;;;;1.17;0.40;;;;;;;;;;4970746;28;20035;-58
2023/11/08 10:54:15;;;;;;;1.00;0.35;;;;;;;;;;4955255;28;20118;-58
2023/11/08 10:59:54;;;;;;;1.10;0.50;;;;;;;;;;4964661;28;20132;-58
2023/11/08 11:02:51;;;;;;;;;;;;;;;;;;;;;
2023/11/08 11:05:20;;;;;;;1.88;0.40;;;;;;;;;;4973977;28;20033;-58
2023/11/08 11:08:23;;;;;;;;;;;;;;;;;;;;;
2023/11/08 11:11:04;;;;;;;1.80;0.50;;;;;;;;;;4970510;28;20433;-59
2023/11/08 11:13:59;;;;;;;1.63;0.73;;;;;;;;;;4972246;28;20035;-59
2023/11/08 11:16:41;;;;;;;1.13;0.47;;;;;;;;;;4910259;29;20427;-59
2023/11/08 11:19:48;;;;;;;0.85;0.38;;;;;;;;;;4972637;28;20043;-58
2023/11/08 11:22:35;;;;;;;1.77;0.57;;;;;;;;;;4973278;28;20042;-58
2023/11/08 11:25:22;;;;;;;0.75;0.20;;;;;;;;;;4959717;28;20457;-58
2023/11/08 11:28:06;;;;;;;1.58;0.50;;;;;;;;;;4965056;28;20039;-58
2023/11/08 11:33:36;;;;;;;1.08;0.40;;;;;;;;;;4954391;29;20046;-58
2023/11/08 11:36:11;;;;;;;1.35;0.65;;;;;;;;;;4954071;28;20028;-58
2023/11/08 11:38:48;;;;;;;0.50;0.28;;;;;;;;;;4963793;28;21206;-59
2023/11/08 11:44:36;;;;;;;0.50;0.22;;;;;;;;;;4942776;28;20046;-58
2023/11/08 11:47:30;;;;;;;3.33;0.40;;;;;;;;;;4972797;28;20477;-58
2023/11/08 11:50:42;;;;;;;1.38;0.60;;;;;;;;;;4971686;28;20087;-57
2023/11/08 11:56:07;;;;;;;0.77;0.30;;;;;;;;;;4969019;28;20121;-58
2023/11/08 11:58:53;;;;;;;1.35;0.50;;;;;;;;;;4976135;28;20033;-58
2023/11/08 12:04:12;;;;;;;1.08;0.35;;;;;;;;;;4978494;28;20042;-58
2023/11/08 12:06:48;;;;;;;0.98;0.52;;;;;;;;;;4978539;28;20109;-58
2023/11/08 12:09:24;;;;;;;0.77;0.28;;;;;;;;;;4979631;28;20034;-58
2023/11/08 12:12:10;;;;;;;2.80;0.50;;;;;;;;;;4980903;28;20030;-58
2023/11/08 12:14:51;;;;;;;1.20;0.28;;;;;;;;;;4981409;28;20074;-59
2023/11/08 12:17:36;;;;;;;1.33;0.43;;;;;;;;;;4978707;28;20066;-58
2023/11/08 12:20:33;;;;;;;0.95;0.20;;;;;;;;;;4979866;28;20062;-57
2023/11/08 12:23:22;;;;;;;;;;;;;;;;;;;;;
2023/11/08 12:25:54;;;;;;;0.93;0.40;;;;;;;;;;4977039;28;20106;-57
2023/11/08 12:28:24;;;;;;;0.50;0.13;;;;;;;;;;4974645;28;20035;-56
2023/11/08 12:31:14;;;;;;;0.90;0.40;;;;;;;;;;4973776;28;20081;-57
2023/11/08 12:33:48;;;;;;;0.68;0.43;;;;;;;;;;4974331;28;20033;-51
2023/11/08 12:36:41;;;;;;;0.95;0.30;;;;;;;;;;4974782;28;20166;-55
2023/11/08 12:45:42;;;;;;;0.55;0.30;;;;;;;;;;4911080;29;20111;-57
2023/11/08 12:48:30;;;;;;;1.75;0.50;;;;;;;;;;4931121;28;20045;-55
2023/11/08 12:51:17;;;;;;;;;;;;;;;;;;;;;
2023/11/08 12:54:29;;;;;;;1.05;0.40;;;;;;;;;;4969188;28;20392;-57
2023/11/08 12:57:17;;;;;;;;;;;;;;;;;;;;;
2023/11/08 13:12:14;;;;;;;0.30;0.15;;;;;;;;;;4973928;28;20396;-53
2023/11/08 13:15:13;;;;;;;0.93;0.28;;;;;;;;;;4971394;28;20362;-57
2023/11/08 13:17:50;;;;;;;0.77;0.30;;;;;;;;;;4974660;28;20038;-57
2023/11/08 13:20:44;;;;;;;0.50;0.25;;;;;;;;;;4976509;28;20094;-57
2023/11/08 13:23:36;;;;;;;0.68;0.30;;;;;;;;;;4975047;28;20032;-55
2023/11/08 13:26:11;;;;;;;0.55;0.25;;;;;;;;;;4969273;28;20054;-57
2023/11/08 13:29:06;;;;;;;0.50;0.20;;;;;;;;;;4972094;28;20066;-53
2023/11/08 13:31:51;;;;;;;;;;;;;;;;;;;;;
2023/11/08 13:34:53;;;;;;;0.57;0.20;;;;;;;;;;4972925;28;20046;-56
2023/11/08 13:37:26;;;;;;;0.98;0.32;;;;;;;;;;4974152;28;20042;-55
2023/11/08 13:39:58;;;;;;;5.30;0.60;;;;;;;;;;4975329;28;20031;-53
2023/11/08 13:45:41;;;;;;;0.57;0.20;;;;;;;;;;4940154;28;20043;-57
2023/11/08 13:48:22;;;;;;;;;;;;;;;;;;;;;
2023/11/08 13:51:07;;;;;;;1.33;0.40;;;;;;;;;;4954555;29;20047;-56
2023/11/08 13:53:39;;;;;;;1.25;0.43;;;;;;;;;;4970729;28;20389;-57
2023/11/08 13:56:18;;;;;;;1.10;0.20;;;;;;;;;;4975131;28;20054;-58
2023/11/08 14:02:03;;;;;;;0.75;0.40;;;;;;;;;;4970482;28;20074;-58
2023/11/08 14:04:44;;;;;;;4.68;0.60;;;;;;;;;;4964217;28;20030;-56
2023/11/08 14:07:16;;;;;;;1.08;0.30;;;;;;;;;;4973798;28;20291;-57
2023/11/08 14:10:04;;;;;;;0.52;0.20;;;;;;;;;;4974066;28;20039;-57
2023/11/08 14:13:12;;;;;;;;;;;;;;;;;;;;;
2023/11/08 14:16:14;;;;;;;3.65;0.35;;;;;;;;;;4973397;28;20053;-56
2023/11/08 14:18:52;;;;;;;2.17;0.20;;;;;;;;;;4973269;28;20030;-57
2023/11/08 14:21:54;;;;;;;0.52;0.20;;;;;;;;;;4974556;28;20101;-55
2023/11/08 14:24:28;;;;;;;0.32;0.15;;;;;;;;;;4973091;28;20041;-58
2023/11/08 14:27:12;;;;;;;0.20;0.10;;;;;;;;;;4972028;28;20050;-57
2023/11/08 14:29:53;;;;;;;1.45;0.40;;;;;;;;;;4973789;28;20046;-56
2023/11/08 14:32:41;;;;;;;1.25;0.40;;;;;;;;;;4970108;28;20053;-58
2023/11/08 14:38:38;;;;;;;0.57;0.20;;;;;;;;;;4907886;29;20483;-58
2023/11/08 14:41:39;;;;;;;7.13;0.60;;;;;;;;;;4972114;28;20046;-57
2023/11/08 14:44:20;;;;;;;0.98;0.28;;;;;;;;;;4955694;29;20114;-58
2023/11/08 14:46:56;;;;;;;0.47;0.20;;;;;;;;;;4969521;28;20481;-59
2023/11/08 14:49:43;;;;;;;3.63;0.22;;;;;;;;;;4977075;28;20048;-57
2023/11/08 14:52:17;;;;;;;2.92;0.60;;;;;;;;;;4991504;28;20049;-58
2023/11/08 14:54:56;;;;;;;0.45;0.28;;;;;;;;;;4974687;28;20092;-55
2023/11/08 15:00:57;;;;;;;;;;;;;;;;;;;;;
2023/11/08 15:04:06;;;;;;;;;;;;;;;;;;;;;
2023/11/08 15:07:00;;;;;;;1.02;0.50;;;;;;;;;;4970774;28;20041;-57
2023/11/08 15:09:46;;;;;;;0.95;0.38;;;;;;;;;;4973805;28;20042;-58
2023/11/08 15:13:01;;;;;;;;;;;;;;;;;;;;;
2023/11/08 15:15:42;;;;;;;1.95;0.45;;;;;;;;;;4962199;28;20053;-58
2023/11/08 15:18:33;;;;;;;1.85;0.40;;;;;;;;;;4972336;28;20378;-58
2023/11/08 15:21:16;;;;;;;0.20;0.13;;;;;;;;;;4958870;28;20057;-58
2023/11/08 15:23:56;;;;;;;0.93;0.45;;;;;;;;;;4968284;28;20053;-57
2023/11/08 15:26:41;;;;;;;;;;;;;;;;;;4971870;28;20086;-59
2023/11/08 15:29:35;;;;;;;2.17;1.00;;;;;;;;;;4970475;28;19906;-58
2023/11/08 15:32:30;;;;;;;1.67;0.63;;;;;;;;;;4976072;28;20030;-58
2023/11/08 15:35:22;;;;;;;0.80;0.40;;;;;;;;;;4974847;28;20300;-58
2023/11/08 15:38:17;;;;;;;0.95;0.50;;;;;;;;;;4996347;28;20034;-58
2023/11/08 15:41:01;;;;;;;1.42;0.68;;;;;;;;;;4994247;28;20038;-59
2023/11/08 15:43:50;;;;;;;0.90;0.32;;;;;;;;;;4977252;28;20512;-58
2023/11/08 15:46:29;;;;;;;2.25;0.75;;;;;;;;;;4972242;28;20161;-58
2023/11/08 15:49:12;;;;;;;1.73;0.45;;;;;;;;;;4974341;28;20247;-58
2023/11/08 15:54:51;;;;;;;1.00;0.38;;;;;;;;;;4964640;28;20042;-58
2023/11/08 15:57:31;;;;;;;0.70;0.40;;;;;;;;;;4969905;28;20058;-58
2023/11/08 16:00:11;;;;;;;1.88;0.68;;;;;;;;;;4961930;28;20047;-58
2023/11/08 16:05:34;;;;;;;0.85;0.35;;;;;;;;;;4960078;28;21038;-58
2023/11/08 16:08:09;;;;;;;1.23;0.70;;;;;;;;;;4965811;28;20031;-58
2023/11/08 16:11:00;;;;;;;1.33;0.55;;;;;;;;;;4970405;28;20023;-58
2023/11/08 16:13:39;;;;;;;1.92;0.63;;;;;;;;;;4959769;28;20149;-61
2023/11/08 16:16:09;;;;;;;1.75;0.73;;;;;;;;;;4967151;28;20027;-60
2023/11/08 16:21:42;;;;;;;1.00;0.55;;;;;;;;;;4944254;28;20101;-59
2023/11/08 16:24:33;;;;;;;2.08;0.63;;;;;;;;;;4972196;28;20022;-59
2023/11/08 16:27:09;;;;;;;1.15;0.50;;;;;;;;;;4968652;28;20035;-59
2023/11/08 16:32:29;;;;;;;2.53;1.00;;;;;;;;;;4950621;28;20096;-57
2023/11/08 16:34:59;;;;;;;1.00;0.50;;;;;;;;;;4963614;28;20039;-58
2023/11/08 16:37:33;;;;;;;1.35;0.63;;;;;;;;;;4969597;28;20069;-57
2023/11/08 16:40:33;;;;;;;1.60;0.43;;;;;;;;;;4969319;28;20035;-59
2023/11/08 16:43:32;;;;;;;3.95;0.85;;;;;;;;;;4955800;28;20114;-59
2023/11/08 16:46:03;;;;;;;2.38;1.05;;;;;;;;;;4965349;28;20034;-59
2023/11/08 16:48:33;;;;;;;3.05;0.85;;;;;;;;;;4962940;28;20027;-59
2023/11/08 16:51:14;;;;;;;1.52;0.50;;;;;;;;;;4968330;28;20039;-58
2023/11/08 16:53:53;;;;;;;2.28;0.60;;;;;;;;;;4969469;28;20019;-59
2023/11/08 16:56:25;;;;;;;0.85;0.40;;;;;;;;;;4963108;28;20058;-60
2023/11/08 16:59:12;;;;;;;0.82;0.38;;;;;;;;;;4965292;28;20034;-60
2023/11/08 17:01:48;;;;;;;;;;;;;;;;;;;;;
2023/11/08 17:04:17;;;;;;;1.25;0.45;;;;;;;;;;4966358;28;20047;-58
2023/11/08 17:10:04;;;;;;;1.33;0.60;;;;;;;;;;4962376;28;20081;-59
2023/11/08 17:12:55;;;;;;;1.48;0.60;;;;;;;;;;4967007;28;20031;-58
2023/11/08 17:15:53;;;;;;;1.60;0.60;;;;;;;;;;4965728;28;20473;-60
2023/11/08 17:21:54;;;;;;;2.45;0.90;;;;;;;;;;4955193;28;20405;-58
2023/11/08 17:27:14;;;;;;;2.70;1.25;;;;;;;;;;4911836;29;20043;-58
2023/11/08 17:36:00;;;;;;;2.17;0.73;;;;;;;;;;4948367;28;20046;-59
2023/11/08 17:38:26;;;;;;;1.63;0.68;;;;;;;;;;4966548;28;20049;-59
2023/11/08 17:41:15;;;;;;;1.48;0.70;;;;;;;;;;4964847;28;20068;-59
2023/11/08 17:43:56;;;;;;;1.17;0.68;;;;;;;;;;4966057;28;20085;-60
2023/11/08 17:46:46;;;;;;;1.73;0.80;;;;;;;;;;4965872;28;20045;-58
2023/11/08 17:49:12;;;;;;;2.17;0.93;;;;;;;;;;4962977;28;20397;-60
2023/11/08 17:54:56;;;;;;;2.05;0.93;;;;;;;;;;4929618;28;20042;-57
2023/11/08 17:57:30;;;;;;;1.83;1.17;;;;;;;;;;4961998;28;20094;-58
2023/11/08 18:00:12;;;;;;;2.45;1.45;;;;;;;;;;4979216;28;20141;-59
2023/11/08 18:02:59;;;;;;;2.50;1.20;;;;;;;;;;4961878;28;20133;-60
2023/11/08 18:05:37;;;;;;;3.28;1.73;;;;;;;;;;4965398;28;20058;-60
2023/11/08 18:08:51;;;;;;;2.38;1.27;;;;;;;;;;4961221;28;20027;-59
2023/11/08 18:11:46;;;;;;;3.72;1.35;;;;;;;;;;4962416;28;20125;-60
2023/11/08 18:17:22;;;;;;;2.90;1.42;;;;;;;;;;4930468;28;20411;-58
2023/11/08 18:19:48;;;;;;;4.47;2.08;;;;;;;;;;4960410;28;20043;-58
2023/11/08 18:23:03;;;;;;;;;;;;;;;;;;;;;
2023/11/08 18:28:49;;;;;;;3.38;2.22;;;;;;;;;;4893890;29;20136;-59
2023/11/08 18:31:27;;;;;;;3.92;1.73;;;;;;;;;;4890904;29;20520;-59
2023/11/08 18:37:12;;;;;;;3.85;2.63;;;;;;;;;;4924322;28;20459;-59
2023/11/08 18:40:05;;;;;;;4.60;3.17;;;;;;;;;;4969551;28;20046;-58
2023/11/08 18:42:59;;;;;;;5.70;2.88;;;;;;;;;;4961558;28;20559;-59
2023/11/08 19:07:14;;;;;;;4.95;3.33;;;;;;;;;;4967175;28;20061;-59
2023/11/08 19:09:53;;;;;;;8.98;4.43;;;;;;;;;;4878549;29;20448;-58
2023/11/08 19:12:46;;;;;;;;;;;;;;;;;;;;;
2023/11/08 19:15:39;;;;;;;5.50;4.32;;;;;;;;;;4950841;28;20031;-58
2023/11/08 19:18:36;;;;;;;7.03;4.22;;;;;;;;;;4952039;28;20038;-58
2023/11/08 19:21:36;;;;;;;7.38;3.67;;;;;;;;;;4959843;28;20083;-58
2023/11/08 19:25:01;;;;;;;;;;;;;;;;;;;;;
2023/11/08 19:27:18;;;;;;;5.85;4.00;;;;;;;;;;4955678;28;20046;-59
2023/11/08 19:32:48;;;;;;;6.70;3.92;;;;;;;;;;4954219;28;20053;-60
2023/11/08 19:35:26;;;;;;;6.15;4.30;;;;;;;;;;4971602;28;20055;-60
2023/11/08 19:37:53;;;;;;;6.03;3.75;;;;;;;;;;4965801;28;20545;-59
2023/11/08 19:40:31;;;;;;;4.78;3.45;;;;;;;;;;4980719;28;20110;-59
2023/11/08 19:46:11;;;;;;;4.10;3.45;;;;;;;;;;4957940;28;20074;-59
2023/11/08 19:49:02;;;;;;;;;;;;;;;;;;;;;
2023/11/08 19:52:03;;;;;;;4.93;3.95;;;;;;;;;;4969975;28;20034;-60
2023/11/08 19:57:37;;;;;;;5.28;3.97;;;;;;;;;;4969646;28;20045;-58
2023/11/08 20:00:24;;;;;;;7.25;4.38;;;;;;;;;;4970251;28;20117;-58
2023/11/08 20:03:13;;;;;;;5.00;3.75;;;;;;;;;;4961735;28;20118;-59
2023/11/08 20:08:50;;;;;;;4.53;3.53;;;;;;;;;;4918829;29;20446;-59
2023/11/08 20:11:17;;;;;;;8.25;4.30;;;;;;;;;;4966377;28;20118;-59
2023/11/08 20:17:01;;;;;;;9.95;4.32;;;;;;;;;;4969180;28;20396;-60
2023/11/08 20:19:36;;;;;;;6.13;3.53;;;;;;;;;;4976007;28;20081;-59
2023/11/08 20:22:21;;;;;;;7.10;3.22;;;;;;;;;;4975626;28;20031;-58
2023/11/08 20:25:10;;;;;;;5.40;4.38;;;;;;;;;;4960057;28;20037;-60
2023/11/08 20:30:43;;;;;;;6.95;3.88;;;;;;;;;;4975864;28;20420;-59
2023/11/08 20:33:45;;;;;;;4.90;3.70;;;;;;;;;;4974490;28;20035;-58
2023/11/08 20:36:30;;;;;;;5.90;3.50;;;;;;;;;;4934621;29;20044;-58
2023/11/08 20:39:01;;;;;;;5.13;3.40;;;;;;;;;;4949464;28;20047;-60
2023/11/08 20:41:48;;;;;;;7.35;4.20;;;;;;;;;;4973486;28;20484;-58
2023/11/08 20:44:18;;;;;;;5.70;3.78;;;;;;;;;;4974858;28;20046;-58
2023/11/08 20:47:08;;;;;;;3.60;2.92;;;;;;;;;;4973451;28;20038;-59
2023/11/08 20:49:35;;;;;;;5.03;3.33;;;;;;;;;;4973246;28;20026;-58
2023/11/08 20:52:37;;;;;;;3.72;2.92;;;;;;;;;;4973302;28;20109;-58
2023/11/08 20:55:10;;;;;;;4.47;2.35;;;;;;;;;;4953552;29;20127;-59
2023/11/08 20:57:59;;;;;;;5.50;3.13;;;;;;;;;;4973523;28;20038;-57
2023/11/08 21:00:40;;;;;;;7.75;3.28;;;;;;;;;;4979115;28;20507;-60
2023/11/08 21:03:16;;;;;;;;;;;;;;;;;;;;;
2023/11/08 21:09:19;;;;;;;4.55;2.60;;;;;;;;;;4967597;28;20026;-59
2023/11/08 21:15:18;;;;;;;2.58;1.95;;;;;;;;;;4927419;28;20072;-59